Latest Coastal Weather Observations for Maatsuyker Island

IDT60701

Issued at 11:22 pm EST Tuesday 23 July 2019 (issued every 10 minutes, with the page automatically refreshed every 10 minutes)

About coastal observations | Map of coastal stations | Coastal observations for TAS | Marine services | Other Formats
Station Details ID: 094041 Name: MAATSUYKER ISLAND LIGHTHOUSE Lat: -43.66 Lon: 146.27 Height: 146.5 m
Data from the previous 72 hours. | See also: Recent months at Maatsuyker Island
Date/Time
EST
Wind Sea
Height
m
Swell Vis
km
Cloud Weather Temp
°C
Press
hPa
Rain since
9am
mm
Dir  Spd
kts
Gust
kts
Height
m
Period
s
Dir
23/11:00pm NW 28 33 - - - - - - - 7.2 1002.9 3.6
23/10:30pm WNW 31 38 - - - - - - - 7.0 1002.3 3.6
23/10:00pm NW 30 36 - - - - - - - 6.6 1002.3 3.6
23/09:51pm WNW 30 35 - - - - - - - 6.6 1001.9 3.2
23/09:42pm NW 16 27 - - - - - - - 6.7 1002.5 2.8
23/09:30pm NNW 17 25 - - - - - - - 6.4 1002.1 2.8
23/09:23pm NNW 15 25 - - - - - - - 6.7 1001.8 2.8
23/09:17pm N 13 18 - - - - - - - 6.6 1001.8 2.8
23/09:08pm NW 21 24 - - - - - - - 6.6 1001.4 2.8
23/09:01pm WNW 32 37 - - - - - - - 7.1 1001.3 2.8
23/09:00pm NW 21 36 - - - - - - - 7.6 1001.5 2.8
23/08:59pm NW 19 35 - - - - - - - 8.1 1001.4 2.8
23/08:30pm NW 24 28 - - - - - - - 7.0 1001.3 2.8
23/08:11pm NW 28 35 - - - - - - - 7.0 1001.2 2.8
23/08:00pm NW 15 25 - - - - - - - 7.4 1001.4 2.8
23/07:59pm NW 15 25 - - - - - - - 7.2 1001.4 2.8
23/07:30pm NW 16 25 - - - - - - - 6.8 1001.1 2.8
23/07:12pm NNW 18 28 - - - - - - - 6.5 1000.8 2.8
23/07:00pm NNW 19 27 - - - - - - - 6.4 1000.6 2.8
23/06:35pm NW 21 25 - - - - - - - 6.4 1000.0 2.8
23/06:30pm NW 33 46 - - - - - - - 6.8 999.3 2.8
23/06:21pm NW 29 44 - - - - - - - 8.2 999.4 2.4
23/06:00pm NW 31 37 - - - - - - - 8.1 999.1 2.4
23/05:40pm NNW 27 34 - - - - - - - 7.3 998.8 2.4
23/05:32pm NW 37 47 - - - - - - - 7.3 998.1 2.4
23/05:30pm NW 39 47 - - - - - - - 7.7 997.3 2.4
23/05:00pm NW 28 38 - - - - - - - 8.4 997.9 2.4
23/04:52pm NNW 24 34 - - - - - - - 8.0 998.1 2.4
23/04:30pm NW 23 29 - - - - - - - 8.3 998.1 2.4
23/04:21pm NNW 22 26 - - - - - - - 8.0 998.0 2.4
23/04:00pm NW 32 39 - - - - - - - 7.7 997.5 2.4
23/03:33pm NW 37 48 - - - - - - - 8.5 996.1 2.4
23/03:30pm NW 36 41 - - - - - - - 8.4 996.2 2.4
23/03:06pm NW 31 41 - - - - - - - 7.7 996.6 2.4
23/03:00pm NW 35 41 - - - - - - - 7.6 996.7 2.4
23/02:51pm NW 37 40 - - - - - - - 7.2 996.8 2.2
23/02:45pm NNW 21 31 - - - - - - - 7.3 997.1 2.2
23/02:30pm NW 21 26 - - - - - - - 7.0 997.2 2.2
23/02:00pm NNW 24 32 - - - - - - - 6.2 997.3 2.0
23/01:30pm NNW 21 31 - - - - - - - 6.9 996.7 1.0
23/01:02pm NNW 19 29 - - - - - - - 6.3 997.5 1.0
23/01:00pm NNW 20 29 - - - - - - - 6.1 997.5 1.0
23/12:30pm NW 24 32 - - - - - - - 6.2 997.6 0.6
23/12:23pm NW 24 32 - - - - - - - 6.2 997.4 0.6
23/12:00pm N 21 30 - - - - - - - 6.4 997.3 0.4
23/11:54am N 19 30 - - - - - - - 6.4 997.3 0.4
23/11:30am NNW 20 29 - - - - - - - 6.6 997.6 0.4
23/11:17am N 20 31 - - - - - - - 6.1 997.9 0.4
23/11:00am NNW 18 25 - - - - - - - 6.3 998.3 0.4
23/10:30am NW 27 37 - - - - - - - 7.3 998.0 0.0
23/10:02am NNW 20 30 - - - - - - - 7.5 998.2 0.0
23/10:00am N 21 30 - - - - - - - 7.4 998.1 0.0
23/09:52am NNW 19 29 - - - - - - - 7.3 998.1 0.0
23/09:30am NNW 20 27 - - - - - - - 7.7 997.7 0.0
23/09:00am N 15 22 3 4.0 14 SW 20 Mostly cloudy Fine 7.3 998.4 6.4
23/08:30am NNW 16 23 - - - - - - - 7.0 998.1 6.4
23/08:00am N 16 25 - - - - - - - 7.1 998.1 6.4
23/07:30am NNW 13 20 - - - - - - - 7.2 998.4 6.2
23/07:00am NW 15 20 - - - - - - - 7.8 998.7 5.6
23/06:30am NW 19 25 - - - - - - - 7.6 998.1 5.6
23/06:00am NW 22 32 5 5.5 13 SW 5 Mostly cloudy Showers 8.8 998.1 5.2
23/05:59am NW 21 32 - - - - - - - 8.9 997.9 5.2
23/05:30am NW 20 27 - - - - - - - 8.9 997.7 5.2
23/05:00am NW 22 30 - - - - - - - 8.5 997.4 5.2
23/04:30am NW 21 27 - - - - - - - 8.3 997.6 5.2
23/04:00am NW 26 36 - - - - - - - 8.0 997.7 5.2
23/03:52am NW 24 34 - - - - - - - 8.6 997.7 5.0
23/03:30am NW 21 27 - - - - - - - 8.5 997.7 5.0
23/03:00am NNW 27 38 - - - - - - - 7.9 997.9 4.8
23/02:30am NW 28 49 - - - - - - - 8.0 998.2 4.4
23/02:20am NNW 31 42 - - - - - - - 8.5 997.9 4.0
23/02:06am NW 20 30 - - - - - - - 8.6 998.2 4.0
23/02:00am NW 21 30 - - - - - - - 8.8 998.3 4.0
23/01:30am NNW 23 30 - - - - - - - 8.3 998.1 4.0
23/01:00am NW 26 36 - - - - - - - 8.1 998.0 4.0
23/12:35am NNW 31 41 - - - - - - - 8.2 998.0 4.0
23/12:30am NNW 32 41 - - - - - - - 7.9 997.9 4.0
23/12:00am NW 30 40 - - - - - - - 8.5 998.2 3.2
 
Date/Time
EST
Wind Sea
Height
m
Swell Vis
km
Cloud Weather Temp
°C
Press
hPa
Rain since
9am
mm
Dir  Spd
kts
Gust
kts
Height
m
Period
s
Dir
22/11:30pm NNW 29 40 - - - - - - - 8.6 997.4 2.4
22/11:04pm NNW 29 41 - - - - - - - 8.4 997.2 2.4
22/11:00pm NNW 30 38 - - - - - - - 8.5 997.5 2.4
22/10:30pm NNW 30 41 - - - - - - - 8.6 997.0 2.2
22/10:00pm NNW 30 40 - - - - - - - 8.9 997.4 1.4
22/09:52pm NNW 29 39 - - - - - - - 9.2 997.4 1.0
22/09:30pm NW 43 54 - - - - - - - 9.2 995.6 0.6
22/09:00pm NW 44 56 - - - - - - - 9.5 995.6 0.2
22/08:59pm NW 45 56 - - - - - - - 9.6 995.6 0.2
22/08:42pm NW 47 57 - - - - - - - 10.6 993.6 0.0
22/08:41pm NNW 33 57 - - - - - - - 12.6 994.7 0.0
22/08:30pm NNW 29 40 - - - - - - - 13.6 994.2 0.0
22/08:02pm NNW 32 42 - - - - - - - 13.6 993.9 0.0
22/08:00pm NNW 31 40 - - - - - - - 13.5 993.8 0.0
22/07:30pm NNW 29 40 - - - - - - - 13.5 994.2 0.0
22/07:00pm NNW 25 37 - - - - - - - 13.2 994.7 0.0
22/06:30pm NNW 25 36 - - - - - - - 13.0 995.5 0.0
22/06:00pm NNW 24 37 - - - - - - - 13.2 996.4 0.0
22/05:31pm NNW 26 36 - - - - - - - 13.4 996.3 0.0
22/05:30pm NNW 26 35 - - - - - - - 13.3 996.3 0.0
22/05:00pm NNW 25 39 - - - - - - - 13.2 997.0 0.0
22/04:33pm NNW 19 32 - - - - - - - 13.7 997.0 0.0
22/04:30pm NNW 18 25 - - - - - - - 13.5 997.2 0.0
22/04:00pm NNW 21 32 - - - - - - - 13.6 997.6 0.0
22/03:38pm NNW 18 28 - - - - - - - 13.8 997.6 0.0
22/03:30pm NNW 20 28 - - - - - - - 14.3 997.6 0.0
22/03:03pm NNW 21 32 - - - - - - - 13.8 997.8 0.0
22/03:00pm NNW 21 28 - - - - - - - 13.8 998.2 0.0
22/02:30pm NNW 20 31 - - - - - - - 14.3 998.0 0.0
22/02:24pm NNW 20 31 - - - - - - - 14.0 997.9 0.0
22/02:00pm NNW 19 28 - - - - - - - 14.4 998.1 0.0
22/01:33pm NNW 21 31 - - - - - - - 13.4 998.4 0.0
22/01:30pm NNW 21 29 - - - - - - - 13.4 998.4 0.0
22/01:07pm NNW 22 32 - - - - - - - 13.5 998.9 0.0
22/01:00pm NNW 24 32 - - - - - - - 13.6 998.8 0.0
22/12:30pm NNW 25 40 - - - - - - - 13.4 999.2 0.0
22/12:09pm NNW 24 34 - - - - - - - 13.5 999.5 0.0
22/12:00pm NNW 24 33 - - - - - - - 13.8 999.9 0.0
22/11:30am NNW 23 33 - - - - - - - 13.0 1000.2 0.0
22/11:08am NNW 23 36 - - - - - - - 12.9 1000.3 0.0
22/11:00am NNW 23 32 - - - - - - - 12.8 1000.5 0.0
22/10:39am NNW 22 32 - - - - - - - 12.7 1000.9 0.0
22/10:30am NNW 22 30 - - - - - - - 12.8 1000.9 0.0
22/10:00am NNW 21 31 - - - - - - - 12.5 1001.1 0.0
22/09:30am NNW 23 37 - - - - - - - 12.0 1001.3 0.0
22/09:00am NNW 26 37 3 3.5 13 SW 20 Mostly cloudy Distant precip. 11.4 1001.3 4.8
22/08:30am NW 25 36 - - - - - - - 11.6 1001.0 4.8
22/08:09am NNW 25 38 - - - - - - - 12.1 1001.2 4.8
22/08:00am NNW 24 31 - - - - - - - 12.2 1001.0 4.8
22/07:30am NNW 27 37 - - - - - - - 12.0 1000.8 4.8
22/07:00am NNW 28 39 - - - - - - - 11.9 1000.9 4.8
22/06:30am NNW 29 39 - - - - - - - 11.7 1000.3 4.8
22/06:00am NNW 27 39 3 3.5 13 SW 20 Mostly cloudy Fine 11.6 1000.8 4.8
22/05:34am NNW 26 36 - - - - - - - 11.4 1001.0 4.8
22/05:30am NNW 27 36 - - - - - - - 11.3 1000.9 4.8
22/05:13am NNW 27 38 - - - - - - - 11.2 1001.0 4.8
22/05:00am NNW 25 33 - - - - - - - 11.1 1000.9 4.6
22/04:30am NNW 25 35 - - - - - - - 10.9 1001.1 4.6
22/04:00am NNW 27 38 - - - - - - - 11.0 1001.5 4.6
22/03:30am NNW 27 37 - - - - - - - 11.0 1001.6 4.6
22/03:00am NNW 25 36 - - - - - - - 10.7 1002.0 4.6
22/02:33am NNW 24 34 - - - - - - - 10.6 1002.3 4.6
22/02:30am NNW 24 31 - - - - - - - 10.6 1002.4 4.6
22/02:00am NNW 24 32 - - - - - - - 10.4 1002.5 4.6
22/01:43am NNW 23 36 - - - - - - - 10.4 1002.4 4.6
22/01:30am NNW 22 30 - - - - - - - 10.4 1002.7 4.6
22/01:00am NNW 20 31 - - - - - - - 10.2 1002.9 4.6
22/12:35am NNW 22 32 - - - - - - - 10.2 1002.9 4.6
22/12:30am NNW 24 31 - - - - - - - 10.1 1003.0 4.6
22/12:00am NNW 23 31 - - - - - - - 10.1 1003.2 4.6
 
Date/Time
EST
Wind Sea
Height
m
Swell Vis
km
Cloud Weather Temp
°C
Press
hPa
Rain since
9am
mm
Dir  Spd
kts
Gust
kts
Height
m
Period
s
Dir
21/11:30pm NNW 25 33 - - - - - - - 10.1 1003.0 4.6
21/11:00pm NNW 24 31 - - - - - - - 9.8 1003.3 4.6
21/10:30pm NNW 24 32 - - - - - - - 9.8 1003.3 4.6
21/10:00pm NW 25 35 - - - - - - - 10.0 1003.4 4.6
21/09:30pm NNW 22 32 - - - - - - - 9.5 1003.3 4.6
21/09:06pm NNW 23 33 - - - - - - - 9.8 1003.0 4.6
21/09:00pm NNW 23 28 - - - - - - - 9.6 1003.2 4.6
21/08:30pm NW 31 41 - - - - - - - 10.3 1002.4 4.6
21/08:00pm NW 38 48 - - - - - - - 9.9 1001.8 4.6
21/07:30pm NNW 31 41 - - - - - - - 10.2 1001.7 4.6
21/07:00pm NW 31 45 - - - - - - - 9.6 1001.5 4.6
21/06:53pm NW 35 45 - - - - - - - 9.7 1001.2 4.6
21/06:50pm NW 37 43 - - - - - - - 10.1 1001.2 4.6
21/06:31pm NNW 26 36 - - - - - - - 9.4 1001.7 4.6
21/06:30pm NNW 26 33 - - - - - - - 9.3 1001.8 4.6
21/06:26pm NNW 25 31 - - - - - - - 9.3 1001.7 4.6
21/06:00pm NW 36 46 - - - - - - - 9.0 1001.1 4.6
21/05:56pm NW 36 46 - - - - - - - 8.8 1000.6 4.6
21/05:30pm NW 39 48 - - - - - - - 8.4 1000.0 4.6
21/05:06pm NW 33 43 - - - - - - - 9.3 1000.3 4.4
21/05:00pm NW 35 44 - - - - - - - 9.1 1000.0 4.4
21/04:37pm NW 36 46 - - - - - - - 9.8 999.2 4.4
21/04:30pm NW 35 43 - - - - - - - 9.5 999.8 4.4
21/04:00pm NW 43 55 - - - - - - - 9.7 999.4 4.4
21/03:36pm NW 42 52 - - - - - - - 10.0 998.6 4.4
21/03:30pm NW 41 50 - - - - - - - 10.0 998.2 4.4
21/03:17pm NW 47 58 - - - - - - - 9.2 998.3 4.4
21/03:00pm NW 46 55 - - - - - - - 10.2 997.6 4.4
21/02:30pm NW 43 55 - - - - - - - 9.7 997.3 4.2
21/02:22pm NW 40 50 - - - - - - - 9.6 996.9 4.2
21/02:21pm NW 39 45 - - - - - - - 9.7 997.1 4.2
21/02:00pm NW 49 62 - - - - - - - 8.6 995.7 4.2
21/01:30pm NW 49 63 - - - - - - - 8.6 995.9 4.2
21/01:00pm NW 47 57 - - - - - - - 9.3 995.6 3.8
21/12:30pm NW 42 54 - - - - - - - 9.2 994.9 3.4
21/12:10pm NW 49 59 - - - - - - - 8.4 995.0 3.2
21/12:06pm NW 52 59 - - - - - - - 8.1 994.0 3.0
21/12:00pm NW 40 51 - - - - - - - 8.8 994.9 3.0
21/11:41am NW 44 54 - - - - - - - 8.8 995.3 2.4
21/11:39am NW 47 54 - - - - - - - 8.5 994.5 2.4
21/11:30am NW 35 49 - - - - - - - 9.5 995.7 2.0
21/11:12am NNW 42 52 - - - - - - - 9.2 994.6 2.0
21/11:10am NW 43 52 - - - - - - - 9.5 994.3 1.8
21/11:04am NW 33 53 - - - - - - - 10.3 994.9 1.8
21/11:00am NW 31 42 - - - - - - - 10.5 995.7 1.8
21/10:30am NNW 29 41 - - - - - - - 10.1 995.7 1.8
21/10:05am NNW 29 41 - - - - - - - 10.0 995.7 1.6
21/10:00am NNW 29 35 - - - - - - - 9.7 995.7 1.6
21/09:41am N 18 28 - - - - - - - 9.4 996.3 1.6
21/09:30am NNW 22 31 - - - - - - - 9.5 996.4 1.4
21/09:00am NNW 23 34 3 3.5 13 SW 5 Mostly cloudy Rain 10.2 997.1 0.2
21/08:52am NNW 18 34 - - - - - - - 10.8 996.8 0.2
21/08:30am NNW 16 21 - - - - - - - 11.7 996.7 0.0
21/08:00am N 13 21 - - - - - - - 12.4 996.6 0.0
21/07:30am N 15 23 - - - - - - - 12.1 996.7 0.0
21/07:04am N 16 26 - - - - - - - 12.5 996.8 0.0
21/07:00am N 17 26 - - - - - - - 12.6 996.8 0.0
21/06:30am N 18 29 - - - - - - - 12.3 997.1 0.0
21/06:06am N 18 30 - - - - - - - 12.0 997.4 0.0
21/06:00am N 15 24 2 2.5 12 SW 20 Mostly cloudy Fine 11.8 997.7 0.0
21/05:39am N 15 26 - - - - - - - 11.8 998.3 0.0
21/05:30am N 15 24 - - - - - - - 11.9 998.4 0.0
21/05:00am N 15 22 - - - - - - - 12.2 999.4 0.0
21/04:30am N 15 21 - - - - - - - 12.3 999.8 0.0
21/04:00am NNW 14 21 - - - - - - - 12.1 1000.5 0.0
21/03:30am N 13 20 - - - - - - - 12.0 1001.2 0.0
21/03:00am N 12 21 - - - - - - - 12.0 1002.1 0.0
21/02:30am N 14 26 - - - - - - - 12.3 1002.6 0.0
21/02:00am N 15 25 - - - - - - - 12.4 1003.0 0.0
21/01:55am N 15 25 - - - - - - - 12.4 1003.0 0.0
21/01:30am N 11 16 - - - - - - - 12.3 1003.5 0.0
21/01:00am N 11 19 - - - - - - - 11.9 1003.8 0.0
21/12:30am N 14 21 - - - - - - - 11.6 1004.0 0.0
21/12:00am N 15 23 - - - - - - - 11.8 1004.3 0.0
 
Date/Time
EST
Wind Sea
Height
m
Swell Vis
km
Cloud Weather Temp
°C
Press
hPa
Rain since
9am
mm
Dir  Spd
kts
Gust
kts
Height
m
Period
s
Dir
20/11:30pm N 14 19 - - - - - - - 12.1 1004.5 0.0

Other formats

Comma delimited format used in spreadsheet applications
http://www.bom.gov.au/fwo/IDT60701/IDT60701.94962.axf

JavaScript Object Notation format (JSON) in row-major order
http://www.bom.gov.au/fwo/IDT60701/IDT60701.94962.json

Data quality

Most of these data are generated automatically and are frequently updated. Quality checks on data are not normally performed. It is possible for incorrect values to appear. Refer to information at About Latest Weather Observations and please check the disclaimer before using these data.